sensor_id;sensor_type;location;lat;lon;timestamp;pressure;altitude;pressure_sealevel;temperature;humidity
48517;BME280;34310;51.904;4.256;2023-06-14T00:01:49;101603.41;;;27.24;46.70
48517;BME280;34310;51.904;4.256;2023-06-14T00:04:17;101608.69;;;27.22;46.57
48517;BME280;34310;51.904;4.256;2023-06-14T00:06:45;101611.34;;;27.22;46.75
48517;BME280;34310;51.904;4.256;2023-06-14T00:09:12;101607.81;;;27.22;46.66
48517;BME280;34310;51.904;4.256;2023-06-14T00:11:41;101608.66;;;27.21;46.60
48517;BME280;34310;51.904;4.256;2023-06-14T00:14:08;101606.00;;;27.19;46.71
48517;BME280;34310;51.904;4.256;2023-06-14T00:16:36;101604.25;;;27.20;46.66
48517;BME280;34310;51.904;4.256;2023-06-14T00:19:06;101611.25;;;27.17;46.68
48517;BME280;34310;51.904;4.256;2023-06-14T00:21:33;101608.56;;;27.16;46.80
48517;BME280;34310;51.904;4.256;2023-06-14T00:24:02;101609.47;;;27.16;46.66
48517;BME280;34310;51.904;4.256;2023-06-14T00:26:29;101613.88;;;27.16;46.96
48517;BME280;34310;51.904;4.256;2023-06-14T00:28:57;101605.91;;;27.14;46.94
48517;BME280;34310;51.904;4.256;2023-06-14T00:31:24;101607.66;;;27.14;46.86
48517;BME280;34310;51.904;4.256;2023-06-14T00:33:52;101612.06;;;27.13;46.89
48517;BME280;34310;51.904;4.256;2023-06-14T00:36:19;101609.41;;;27.12;47.03
48517;BME280;34310;51.904;4.256;2023-06-14T00:38:47;101612.94;;;27.12;46.81
48517;BME280;34310;51.904;4.256;2023-06-14T00:41:14;101612.06;;;27.12;46.95
48517;BME280;34310;51.904;4.256;2023-06-14T00:43:41;101612.06;;;27.12;46.92
48517;BME280;34310;51.904;4.256;2023-06-14T00:46:09;101607.59;;;27.09;46.90
48517;BME280;34310;51.904;4.256;2023-06-14T00:48:37;101614.66;;;27.09;46.95
48517;BME280;34310;51.904;4.256;2023-06-14T00:51:05;101608.47;;;27.08;47.01
48517;BME280;34310;51.904;4.256;2023-06-14T00:53:33;101607.56;;;27.06;47.12
48517;BME280;34310;51.904;4.256;2023-06-14T00:56:03;101609.34;;;27.07;46.96
48517;BME280;34310;51.904;4.256;2023-06-14T00:58:31;101613.72;;;27.05;47.22
48517;BME280;34310;51.904;4.256;2023-06-14T01:00:59;101614.59;;;27.04;46.95
48517;BME280;34310;51.904;4.256;2023-06-14T01:03:27;101603.09;;;27.04;47.19
48517;BME280;34310;51.904;4.256;2023-06-14T01:09:27;101602.19;;;27.02;47.27
48517;BME280;34310;51.904;4.256;2023-06-14T01:12:29;101603.94;;;27.01;47.00
48517;BME280;34310;51.904;4.256;2023-06-14T01:15:00;101597.72;;;26.99;47.38
48517;BME280;34310;51.904;4.256;2023-06-14T01:17:28;101600.31;;;26.98;47.45
48517;BME280;34310;51.904;4.256;2023-06-14T01:20:02;101601.19;;;26.97;47.24
48517;BME280;34310;51.904;4.256;2023-06-14T01:22:30;101602.94;;;26.96;47.32
48517;BME280;34310;51.904;4.256;2023-06-14T01:24:58;101607.38;;;26.96;47.47
48517;BME280;34310;51.904;4.256;2023-06-14T01:27:26;101612.66;;;26.96;47.42
48517;BME280;34310;51.904;4.256;2023-06-14T01:29:57;101602.03;;;26.94;47.22
48517;BME280;34310;51.904;4.256;2023-06-14T01:32:26;101607.34;;;26.94;47.36
48517;BME280;34310;51.904;4.256;2023-06-14T01:34:54;101605.56;;;26.93;47.30
48517;BME280;34310;51.904;4.256;2023-06-14T01:37:22;101603.78;;;26.92;47.37
48517;BME280;34310;51.904;4.256;2023-06-14T01:39:50;101601.09;;;26.91;47.31
48517;BME280;34310;51.904;4.256;2023-06-14T01:42:18;101602.88;;;26.90;47.28
48517;BME280;34310;51.904;4.256;2023-06-14T01:44:47;101613.47;;;26.90;47.34
48517;BME280;34310;51.904;4.256;2023-06-14T01:47:15;101604.56;;;26.88;47.51
48517;BME280;34310;51.904;4.256;2023-06-14T01:49:42;101606.31;;;26.88;47.40
48517;BME280;34310;51.904;4.256;2023-06-14T01:52:10;101606.31;;;26.88;47.59
48517;BME280;34310;51.904;4.256;2023-06-14T01:54:37;101606.28;;;26.86;47.52
48517;BME280;34310;51.904;4.256;2023-06-14T01:57:09;101606.28;;;26.86;47.58
48517;BME280;34310;51.904;4.256;2023-06-14T01:59:37;101600.09;;;26.84;47.39
48517;BME280;34310;51.904;4.256;2023-06-14T02:02:05;101600.97;;;26.84;47.65
48517;BME280;34310;51.904;4.256;2023-06-14T02:04:33;101605.38;;;26.82;47.61
48517;BME280;34310;51.904;4.256;2023-06-14T02:07:00;101611.53;;;26.81;47.54
48517;BME280;34310;51.904;4.256;2023-06-14T02:09:28;101615.03;;;26.80;47.68
48517;BME280;34310;51.904;4.256;2023-06-14T02:11:55;101610.63;;;26.81;47.64
48517;BME280;34310;51.904;4.256;2023-06-14T02:14:23;101607.97;;;26.79;47.81
48517;BME280;34310;51.904;4.256;2023-06-14T02:16:50;101607.06;;;26.79;47.54
48517;BME280;34310;51.904;4.256;2023-06-14T02:19:18;101607.03;;;26.76;47.77
48517;BME280;34310;51.904;4.256;2023-06-14T02:21:47;101608.81;;;26.77;47.65
48517;BME280;34310;51.904;4.256;2023-06-14T02:24:14;101613.22;;;26.76;47.86
48517;BME280;34310;51.904;4.256;2023-06-14T02:26:42;101617.63;;;26.76;47.73
48517;BME280;34310;51.904;4.256;2023-06-14T02:29:10;101612.31;;;26.74;47.94
48517;BME280;34310;51.904;4.256;2023-06-14T02:31:39;101614.94;;;26.73;47.81
48517;BME280;34310;51.904;4.256;2023-06-14T02:34:07;101614.94;;;26.73;47.88
48517;BME280;34310;51.904;4.256;2023-06-14T02:36:37;101613.13;;;26.72;47.82
48517;BME280;34310;51.904;4.256;2023-06-14T02:39:09;101607.81;;;26.70;47.84
48517;BME280;34310;51.904;4.256;2023-06-14T02:41:37;101609.56;;;26.70;48.02
48517;BME280;34310;51.904;4.256;2023-06-14T02:44:06;101610.44;;;26.69;47.81
48517;BME280;34310;51.904;4.256;2023-06-14T02:46:33;101607.78;;;26.67;48.05
48517;BME280;34310;51.904;4.256;2023-06-14T02:49:00;101608.63;;;26.66;47.86
48517;BME280;34310;51.904;4.256;2023-06-14T02:51:28;101618.34;;;26.66;47.99
48517;BME280;34310;51.904;4.256;2023-06-14T02:53:55;101612.13;;;26.64;48.02
48517;BME280;34310;51.904;4.256;2023-06-14T02:56:23;101613.00;;;26.63;47.99
48517;BME280;34310;51.904;4.256;2023-06-14T02:58:50;101615.63;;;26.63;47.87
48517;BME280;34310;51.904;4.256;2023-06-14T03:01:18;101620.03;;;26.62;47.80
48517;BME280;34310;51.904;4.256;2023-06-14T03:03:48;101627.09;;;26.62;48.09
48517;BME280;34310;51.904;4.256;2023-06-14T03:06:15;101624.44;;;26.60;48.07
48517;BME280;34310;51.904;4.256;2023-06-14T03:08:44;101625.25;;;26.59;48.17
48517;BME280;34310;51.904;4.256;2023-06-14T03:11:12;101627.03;;;26.59;47.94
48517;BME280;34310;51.904;4.256;2023-06-14T03:13:39;101633.19;;;26.58;48.11
48517;BME280;34310;51.904;4.256;2023-06-14T03:16:07;101633.16;;;26.56;48.09
48517;BME280;34310;51.904;4.256;2023-06-14T03:18:37;101634.91;;;26.55;48.10
48517;BME280;34310;51.904;4.256;2023-06-14T03:21:04;101633.13;;;26.54;47.99
48517;BME280;34310;51.904;4.256;2023-06-14T03:23:32;101647.25;;;26.53;48.33
48517;BME280;34310;51.904;4.256;2023-06-14T03:25:59;101640.16;;;26.52;48.39
48517;BME280;34310;51.904;4.256;2023-06-14T03:28:26;101643.66;;;26.51;48.32
48517;BME280;34310;51.904;4.256;2023-06-14T03:30:54;101645.44;;;26.51;48.30
48517;BME280;34310;51.904;4.256;2023-06-14T03:33:21;101649.84;;;26.50;48.32
48517;BME280;34310;51.904;4.256;2023-06-14T03:35:49;101647.19;;;26.50;48.17
48517;BME280;34310;51.904;4.256;2023-06-14T03:38:16;101652.44;;;26.49;48.36
48517;BME280;34310;51.904;4.256;2023-06-14T03:40:44;101653.31;;;26.48;48.22
48517;BME280;34310;51.904;4.256;2023-06-14T03:43:11;101658.63;;;26.48;48.17
48517;BME280;34310;51.904;4.256;2023-06-14T03:45:39;101665.66;;;26.47;48.44
48517;BME280;34310;51.904;4.256;2023-06-14T03:48:06;101657.69;;;26.46;48.36
48517;BME280;34310;51.904;4.256;2023-06-14T03:50:36;101656.81;;;26.45;48.46
48517;BME280;34310;51.904;4.256;2023-06-14T03:53:05;101661.19;;;26.43;48.51
48517;BME280;34310;51.904;4.256;2023-06-14T03:55:33;101654.09;;;26.42;48.24
48517;BME280;34310;51.904;4.256;2023-06-14T03:58:03;101654.97;;;26.41;48.47
48517;BME280;34310;51.904;4.256;2023-06-14T04:00:31;101661.13;;;26.40;48.42
48517;BME280;34310;51.904;4.256;2023-06-14T04:02:59;101664.63;;;26.39;48.48
48517;BME280;34310;51.904;4.256;2023-06-14T04:05:26;101661.06;;;26.37;48.57
48517;BME280;34310;51.904;4.256;2023-06-14T04:07:54;101661.97;;;26.38;48.46
48517;BME280;34310;51.904;4.256;2023-06-14T04:10:23;101673.41;;;26.37;48.52
48517;BME280;34310;51.904;4.256;2023-06-14T04:12:50;101676.03;;;26.35;48.38
48517;BME280;34310;51.904;4.256;2023-06-14T04:15:18;101676.91;;;26.34;48.57
48517;BME280;34310;51.904;4.256;2023-06-14T04:17:48;101674.25;;;26.34;48.53
48517;BME280;34310;51.904;4.256;2023-06-14T04:20:16;101679.47;;;26.33;48.54
48517;BME280;34310;51.904;4.256;2023-06-14T04:22:44;101683.00;;;26.32;48.38
48517;BME280;34310;51.904;4.256;2023-06-14T04:25:11;101681.19;;;26.31;48.47
48517;BME280;34310;51.904;4.256;2023-06-14T04:27:39;101683.78;;;26.29;48.77
48517;BME280;34310;51.904;4.256;2023-06-14T04:30:07;101674.97;;;26.29;48.46
48517;BME280;34310;51.904;4.256;2023-06-14T04:32:34;101676.69;;;26.27;48.50
48517;BME280;34310;51.904;4.256;2023-06-14T04:35:07;101678.44;;;26.26;48.72
48517;BME280;34310;51.904;4.256;2023-06-14T04:37:35;101676.66;;;26.25;48.63
48517;BME280;34310;51.904;4.256;2023-06-14T04:40:07;101683.72;;;26.24;48.82
48517;BME280;34310;51.904;4.256;2023-06-14T04:42:38;101678.38;;;26.23;48.80
48517;BME280;34310;51.904;4.256;2023-06-14T04:45:08;101676.59;;;26.22;48.80
48517;BME280;34310;51.904;4.256;2023-06-14T04:47:36;101685.41;;;26.21;48.96
48517;BME280;34310;51.904;4.256;2023-06-14T04:50:05;101683.63;;;26.20;48.90
48517;BME280;34310;51.904;4.256;2023-06-14T04:52:32;101684.47;;;26.19;48.99
48517;BME280;34310;51.904;4.256;2023-06-14T04:55:00;101681.81;;;26.17;48.89
48517;BME280;34310;51.904;4.256;2023-06-14T04:57:27;101689.72;;;26.16;48.98
48517;BME280;34310;51.904;4.256;2023-06-14T04:59:55;101685.28;;;26.15;49.09
48517;BME280;34310;51.904;4.256;2023-06-14T05:02:23;101691.47;;;26.15;49.13
48517;BME280;34310;51.904;4.256;2023-06-14T05:04:52;101692.34;;;26.14;49.00
48517;BME280;34310;51.904;4.256;2023-06-14T05:07:20;101689.66;;;26.13;48.93
48517;BME280;34310;51.904;4.256;2023-06-14T05:09:51;101683.44;;;26.11;49.13
48517;BME280;34310;51.904;4.256;2023-06-14T05:12:18;101680.75;;;26.09;48.83
48517;BME280;34310;51.904;4.256;2023-06-14T05:14:46;101685.16;;;26.09;49.07
48517;BME280;34310;51.904;4.256;2023-06-14T05:17:13;101688.69;;;26.08;49.09
48517;BME280;34310;51.904;4.256;2023-06-14T05:19:41;101693.06;;;26.07;48.87
48517;BME280;34310;51.904;4.256;2023-06-14T05:22:08;101693.94;;;26.06;49.05
48517;BME280;34310;51.904;4.256;2023-06-14T05:24:36;101700.13;;;26.07;48.97
48517;BME280;34310;51.904;4.256;2023-06-14T05:27:04;101698.34;;;26.06;49.11
48517;BME280;34310;51.904;4.256;2023-06-14T05:29:32;101699.19;;;26.05;48.79
48517;BME280;34310;51.904;4.256;2023-06-14T05:32:00;101701.84;;;26.05;49.05
48517;BME280;34310;51.904;4.256;2023-06-14T05:34:28;101693.88;;;26.03;48.84
48517;BME280;34310;51.904;4.256;2023-06-14T05:36:55;101695.63;;;26.03;48.82
48517;BME280;34310;51.904;4.256;2023-06-14T05:39:22;101693.00;;;26.03;48.94
48517;BME280;34310;51.904;4.256;2023-06-14T05:41:51;101703.50;;;26.01;49.04
48517;BME280;34310;51.904;4.256;2023-06-14T05:44:18;101699.09;;;26.02;49.05
48517;BME280;34310;51.904;4.256;2023-06-14T05:46:45;101700.81;;;26.00;48.89
48517;BME280;34310;51.904;4.256;2023-06-14T05:49:13;101698.19;;;26.00;48.96
48517;BME280;34310;51.904;4.256;2023-06-14T05:51:40;101694.66;;;25.99;48.88
48517;BME280;34310;51.904;4.256;2023-06-14T05:54:08;101701.69;;;25.99;49.07
48517;BME280;34310;51.904;4.256;2023-06-14T05:56:35;101696.38;;;25.97;48.68
48517;BME280;34310;51.904;4.256;2023-06-14T05:59:02;101704.28;;;25.96;48.57
48517;BME280;34310;51.904;4.256;2023-06-14T06:01:30;101703.34;;;25.93;48.27
48517;BME280;34310;51.904;4.256;2023-06-14T06:03:57;101693.63;;;25.92;48.18
48517;BME280;34310;51.904;4.256;2023-06-14T06:06:25;101702.44;;;25.91;48.37
48517;BME280;34310;51.904;4.256;2023-06-14T06:08:52;101710.38;;;25.91;48.38
48517;BME280;34310;51.904;4.256;2023-06-14T06:11:19;101705.94;;;25.90;48.42
48517;BME280;34310;51.904;4.256;2023-06-14T06:13:47;101705.03;;;25.90;48.11
48517;BME280;34310;51.904;4.256;2023-06-14T06:16:15;101712.09;;;25.89;48.16
48517;BME280;34310;51.904;4.256;2023-06-14T06:18:42;101710.31;;;25.90;48.34
48517;BME280;34310;51.904;4.256;2023-06-14T06:21:11;101709.44;;;25.89;48.36
48517;BME280;34310;51.904;4.256;2023-06-14T06:23:39;101713.84;;;25.89;48.32
48517;BME280;34310;51.904;4.256;2023-06-14T06:26:06;101714.69;;;25.88;48.42
48517;BME280;34310;51.904;4.256;2023-06-14T06:28:34;101706.75;;;25.88;48.24
48517;BME280;34310;51.904;4.256;2023-06-14T06:31:01;101716.44;;;25.87;48.19
48517;BME280;34310;51.904;4.256;2023-06-14T06:33:31;101721.75;;;25.87;48.25
48517;BME280;34310;51.904;4.256;2023-06-14T06:35:58;101719.09;;;25.87;48.42
48517;BME280;34310;51.904;4.256;2023-06-14T06:38:26;101719.09;;;25.87;48.34
48517;BME280;34310;51.904;4.256;2023-06-14T06:40:53;101729.69;;;25.87;48.32
48517;BME280;34310;51.904;4.256;2023-06-14T06:43:21;101726.13;;;25.87;48.55
48517;BME280;34310;51.904;4.256;2023-06-14T06:45:48;101718.19;;;25.87;48.28
48517;BME280;34310;51.904;4.256;2023-06-14T06:48:16;101725.25;;;25.86;48.52
48517;BME280;34310;51.904;4.256;2023-06-14T06:50:43;101728.78;;;25.87;48.29
48517;BME280;34310;51.904;4.256;2023-06-14T06:53:11;101727.94;;;25.88;48.54
48517;BME280;34310;51.904;4.256;2023-06-14T06:55:42;101725.28;;;25.88;48.55
48517;BME280;34310;51.904;4.256;2023-06-14T06:58:09;101729.69;;;25.87;48.71
48517;BME280;34310;51.904;4.256;2023-06-14T07:00:37;101727.03;;;25.87;48.34
48517;BME280;34310;51.904;4.256;2023-06-14T07:03:04;101731.47;;;25.88;48.50
48517;BME280;34310;51.904;4.256;2023-06-14T07:05:32;101740.28;;;25.89;48.47
48517;BME280;34310;51.904;4.256;2023-06-14T07:08:01;101735.00;;;25.89;48.38
48517;BME280;34310;51.904;4.256;2023-06-14T07:10:28;101734.13;;;25.88;48.35
48517;BME280;34310;51.904;4.256;2023-06-14T07:12:55;101739.41;;;25.88;48.53
48517;BME280;34310;51.904;4.256;2023-06-14T07:15:23;101734.16;;;25.90;48.67
48517;BME280;34310;51.904;4.256;2023-06-14T07:17:50;101748.25;;;25.90;48.42
48517;BME280;34310;51.904;4.256;2023-06-14T07:20:18;101751.81;;;25.91;48.70
48517;BME280;34310;51.904;4.256;2023-06-14T07:22:46;101746.50;;;25.91;48.47
48517;BME280;34310;51.904;4.256;2023-06-14T07:25:14;101750.06;;;25.91;48.70
48517;BME280;34310;51.904;4.256;2023-06-14T07:27:44;101754.47;;;25.92;48.77
48517;BME280;34310;51.904;4.256;2023-06-14T07:30:12;101764.22;;;25.93;48.64
48517;BME280;34310;51.904;4.256;2023-06-14T07:32:39;101767.75;;;25.94;48.59
48517;BME280;34310;51.904;4.256;2023-06-14T07:35:08;101773.94;;;25.94;48.74
48517;BME280;34310;51.904;4.256;2023-06-14T07:37:35;101763.34;;;25.94;48.72
48517;BME280;34310;51.904;4.256;2023-06-14T07:40:03;101768.63;;;25.94;48.82
48517;BME280;34310;51.904;4.256;2023-06-14T07:42:35;101766.88;;;25.95;48.50
48517;BME280;34310;51.904;4.256;2023-06-14T07:45:06;101766.88;;;25.95;48.75
48517;BME280;34310;51.904;4.256;2023-06-14T07:47:34;101771.31;;;25.96;48.77
48517;BME280;34310;51.904;4.256;2023-06-14T07:50:02;101766.03;;;25.96;48.88
48517;BME280;34310;51.904;4.256;2023-06-14T07:52:30;101769.56;;;25.97;48.62
48517;BME280;34310;51.904;4.256;2023-06-14T07:54:58;101766.03;;;25.96;48.73
48517;BME280;34310;51.904;4.256;2023-06-14T07:57:25;101762.53;;;25.97;48.86
48517;BME280;34310;51.904;4.256;2023-06-14T07:59:52;101774.00;;;25.98;48.94
48517;BME280;34310;51.904;4.256;2023-06-14T08:02:20;101767.84;;;25.99;48.82
48517;BME280;34310;51.904;4.256;2023-06-14T08:04:47;101767.84;;;25.99;48.85
48517;BME280;34310;51.904;4.256;2023-06-14T08:07:15;101768.75;;;25.99;49.01
48517;BME280;34310;51.904;4.256;2023-06-14T08:09:43;101769.63;;;26.00;48.70
48517;BME280;34310;51.904;4.256;2023-06-14T08:12:10;101768.75;;;25.99;48.82
48517;BME280;34310;51.904;4.256;2023-06-14T08:14:38;101769.63;;;26.00;48.91
48517;BME280;34310;51.904;4.256;2023-06-14T08:17:06;101774.06;;;26.01;48.87
48517;BME280;34310;51.904;4.256;2023-06-14T08:19:33;101774.06;;;26.01;48.84
48517;BME280;34310;51.904;4.256;2023-06-14T08:22:00;101776.72;;;26.01;48.86
48517;BME280;34310;51.904;4.256;2023-06-14T08:24:28;101782.91;;;26.01;49.05
48517;BME280;34310;51.904;4.256;2023-06-14T08:26:56;101775.84;;;26.02;48.86
48517;BME280;34310;51.904;4.256;2023-06-14T08:29:24;101779.44;;;26.02;48.99
48517;BME280;34310;51.904;4.256;2023-06-14T08:31:52;101781.22;;;26.03;48.96
48517;BME280;34310;51.904;4.256;2023-06-14T08:34:19;101777.66;;;26.03;48.79
48517;BME280;34310;51.904;4.256;2023-06-14T08:36:47;101777.66;;;26.03;48.96
48517;BME280;34310;51.904;4.256;2023-06-14T08:39:14;101783.84;;;26.03;48.99
48517;BME280;34310;51.904;4.256;2023-06-14T08:41:46;101788.28;;;26.04;49.08
48517;BME280;34310;51.904;4.256;2023-06-14T08:44:17;101787.44;;;26.05;49.01
48517;BME280;34310;51.904;4.256;2023-06-14T08:46:46;101789.19;;;26.05;49.05
48517;BME280;34310;51.904;4.256;2023-06-14T08:49:16;101784.78;;;26.05;49.13
48517;BME280;34310;51.904;4.256;2023-06-14T08:51:44;101783.03;;;26.06;49.09
48517;BME280;34310;51.904;4.256;2023-06-14T08:54:14;101783.88;;;26.05;48.91
48517;BME280;34310;51.904;4.256;2023-06-14T08:56:42;101780.38;;;26.06;49.04
48517;BME280;34310;51.904;4.256;2023-06-14T08:59:11;101788.34;;;26.07;49.08
48517;BME280;34310;51.904;4.256;2023-06-14T09:01:39;101790.09;;;26.07;49.09
48517;BME280;34310;51.904;4.256;2023-06-14T09:04:12;101781.31;;;26.08;49.10
48517;BME280;34310;51.904;4.256;2023-06-14T09:06:40;101781.31;;;26.08;49.03
48517;BME280;34310;51.904;4.256;2023-06-14T09:09:08;101778.66;;;26.08;49.01
48517;BME280;34310;51.904;4.256;2023-06-14T09:11:35;101785.75;;;26.09;48.92
48517;BME280;34310;51.904;4.256;2023-06-14T09:14:03;101791.03;;;26.09;48.97
48517;BME280;34310;51.904;4.256;2023-06-14T09:16:32;101779.59;;;26.10;49.08
48517;BME280;34310;51.904;4.256;2023-06-14T09:19:00;101790.16;;;26.10;49.13
48517;BME280;34310;51.904;4.256;2023-06-14T09:21:28;101799.91;;;26.11;48.93
48517;BME280;34310;51.904;4.256;2023-06-14T09:24:01;101795.47;;;26.10;49.20
48517;BME280;34310;51.904;4.256;2023-06-14T09:26:29;101799.91;;;26.11;49.09
48517;BME280;34310;51.904;4.256;2023-06-14T09:28:56;101804.34;;;26.12;49.05
48517;BME280;34310;51.904;4.256;2023-06-14T09:31:24;101802.53;;;26.11;48.99
48517;BME280;34310;51.904;4.256;2023-06-14T09:33:52;101801.69;;;26.12;49.34
48517;BME280;34310;51.904;4.256;2023-06-14T09:36:23;101808.75;;;26.13;48.96
48517;BME280;34310;51.904;4.256;2023-06-14T09:38:58;101809.66;;;26.13;49.14
48517;BME280;34310;51.904;4.256;2023-06-14T09:41:40;101802.63;;;26.14;49.18
48517;BME280;34310;51.904;4.256;2023-06-14T09:44:10;101808.81;;;26.14;49.09
48517;BME280;34310;51.904;4.256;2023-06-14T09:46:46;101815.84;;;26.14;49.12
48517;BME280;34310;51.904;4.256;2023-06-14T09:49:14;101808.81;;;26.14;48.95
48517;BME280;34310;51.904;4.256;2023-06-14T09:51:46;101809.69;;;26.15;49.29
48517;BME280;34310;51.904;4.256;2023-06-14T09:54:21;101811.44;;;26.14;49.07
48517;BME280;34310;51.904;4.256;2023-06-14T09:56:51;101815.88;;;26.15;49.04
48517;BME280;34310;51.904;4.256;2023-06-14T09:59:27;101813.22;;;26.15;49.16
48517;BME280;34310;51.904;4.256;2023-06-14T10:01:59;101814.13;;;26.16;49.04
48517;BME280;34310;51.904;4.256;2023-06-14T10:04:29;101808.84;;;26.16;49.32
48517;BME280;34310;51.904;4.256;2023-06-14T10:06:58;101810.59;;;26.15;49.16
48517;BME280;34310;51.904;4.256;2023-06-14T10:09:26;101805.31;;;26.17;49.08
48517;BME280;34310;51.904;4.256;2023-06-14T10:11:57;101809.75;;;26.18;49.18
48517;BME280;34310;51.904;4.256;2023-06-14T10:14:24;101800.94;;;26.17;49.07
48517;BME280;34310;51.904;4.256;2023-06-14T10:19:29;101807.09;;;26.18;49.25
48517;BME280;34310;51.904;4.256;2023-06-14T10:22:16;101797.41;;;26.18;49.18
48517;BME280;34310;51.904;4.256;2023-06-14T10:24:45;101812.44;;;26.19;49.35
48517;BME280;34310;51.904;4.256;2023-06-14T10:27:15;101803.59;;;26.19;49.28
48517;BME280;34310;51.904;4.256;2023-06-14T10:32:21;101799.19;;;26.19;49.33
48517;BME280;34310;51.904;4.256;2023-06-14T10:35:04;101800.09;;;26.20;49.13
48517;BME280;34310;51.904;4.256;2023-06-14T10:37:32;101809.81;;;26.21;49.29
48517;BME280;34310;51.904;4.256;2023-06-14T10:40:00;101816.00;;;26.21;49.34
48517;BME280;34310;51.904;4.256;2023-06-14T10:42:33;101811.59;;;26.22;49.20
48517;BME280;34310;51.904;4.256;2023-06-14T10:45:01;101816.03;;;26.23;49.12
48517;BME280;34310;51.904;4.256;2023-06-14T10:47:33;101814.25;;;26.22;49.12
48517;BME280;34310;51.904;4.256;2023-06-14T10:50:06;101804.59;;;26.24;49.29
48517;BME280;34310;51.904;4.256;2023-06-14T10:52:39;101804.59;;;26.24;49.03
48517;BME280;34310;51.904;4.256;2023-06-14T10:55:14;101805.47;;;26.24;49.18
48517;BME280;34310;51.904;4.256;2023-06-14T10:57:47;101805.53;;;26.26;49.16
48517;BME280;34310;51.904;4.256;2023-06-14T11:00:21;101806.38;;;26.25;49.29
48517;BME280;34310;51.904;4.256;2023-06-14T11:05:54;101809.94;;;26.27;49.03
48517;BME280;34310;51.904;4.256;2023-06-14T11:11:07;101804.66;;;26.27;49.18
48517;BME280;34310;51.904;4.256;2023-06-14T11:13:39;101809.09;;;26.28;49.01
48517;BME280;34310;51.904;4.256;2023-06-14T11:16:13;101807.34;;;26.29;49.29
48517;BME280;34310;51.904;4.256;2023-06-14T11:18:42;101798.53;;;26.30;49.33
48517;BME280;34310;51.904;4.256;2023-06-14T11:21:09;101804.72;;;26.30;49.27
48517;BME280;34310;51.904;4.256;2023-06-14T11:23:37;101808.25;;;26.31;49.12
48517;BME280;34310;51.904;4.256;2023-06-14T11:26:04;101798.59;;;26.31;49.12
48517;BME280;34310;51.904;4.256;2023-06-14T11:28:38;101802.13;;;26.32;49.32
48517;BME280;34310;51.904;4.256;2023-06-14T11:31:06;101803.09;;;26.34;49.06
48517;BME280;34310;51.904;4.256;2023-06-14T11:33:34;101799.53;;;26.33;49.32
48517;BME280;34310;51.904;4.256;2023-06-14T11:36:03;101801.34;;;26.34;49.10
48517;BME280;34310;51.904;4.256;2023-06-14T11:38:35;101797.84;;;26.35;49.25
48517;BME280;34310;51.904;4.256;2023-06-14T11:41:04;101788.13;;;26.36;49.19
48517;BME280;34310;51.904;4.256;2023-06-14T11:43:32;101804.03;;;26.36;49.13
48517;BME280;34310;51.904;4.256;2023-06-14T11:46:02;101799.66;;;26.38;49.19
48517;BME280;34310;51.904;4.256;2023-06-14T11:48:42;101798.78;;;26.39;49.04
48517;BME280;34310;51.904;4.256;2023-06-14T11:51:10;101797.94;;;26.40;49.18
48517;BME280;34310;51.904;4.256;2023-06-14T11:53:38;101802.34;;;26.41;49.19
48517;BME280;34310;51.904;4.256;2023-06-14T11:56:06;101800.59;;;26.41;49.02
48517;BME280;34310;51.904;4.256;2023-06-14T11:58:34;101795.34;;;26.43;49.08
48517;BME280;34310;51.904;4.256;2023-06-14T12:01:03;101798.88;;;26.43;48.94
48517;BME280;34310;51.904;4.256;2023-06-14T12:03:31;101799.78;;;26.44;49.02
48517;BME280;34310;51.904;4.256;2023-06-14T12:06:05;101805.09;;;26.45;49.10
48517;BME280;34310;51.904;4.256;2023-06-14T12:08:38;101801.59;;;26.46;49.09
48517;BME280;34310;51.904;4.256;2023-06-14T12:11:11;101798.06;;;26.47;49.15
48517;BME280;34310;51.904;4.256;2023-06-14T12:13:41;101803.41;;;26.49;48.97
48517;BME280;34310;51.904;4.256;2023-06-14T12:16:10;101789.28;;;26.48;49.03
48517;BME280;34310;51.904;4.256;2023-06-14T12:18:39;101790.19;;;26.50;49.17
48517;BME280;34310;51.904;4.256;2023-06-14T12:21:09;101791.09;;;26.51;49.27
48517;BME280;34310;51.904;4.256;2023-06-14T12:26:15;101795.56;;;26.53;48.95
48517;BME280;34310;51.904;4.256;2023-06-14T12:28:45;101785.84;;;26.54;48.98
48517;BME280;34310;51.904;4.256;2023-06-14T12:31:14;101793.81;;;26.55;48.98
48517;BME280;34310;51.904;4.256;2023-06-14T12:33:41;101789.44;;;26.56;49.17
48517;BME280;34310;51.904;4.256;2023-06-14T12:36:10;101790.34;;;26.58;49.11
48517;BME280;34310;51.904;4.256;2023-06-14T12:38:38;101788.59;;;26.59;49.23
48517;BME280;34310;51.904;4.256;2023-06-14T12:41:05;101789.47;;;26.59;49.09
48517;BME280;34310;51.904;4.256;2023-06-14T12:43:33;101789.53;;;26.61;49.21
48517;BME280;34310;51.904;4.256;2023-06-14T12:46:01;101786.94;;;26.62;49.16
48517;BME280;34310;51.904;4.256;2023-06-14T12:48:28;101786.97;;;26.64;48.92
48517;BME280;34310;51.904;4.256;2023-06-14T12:50:58;101784.31;;;26.64;49.13
48517;BME280;34310;51.904;4.256;2023-06-14T12:53:26;101782.56;;;26.64;49.01
48517;BME280;34310;51.904;4.256;2023-06-14T12:55:53;101789.66;;;26.67;49.08
48517;BME280;34310;51.904;4.256;2023-06-14T12:58:20;101791.44;;;26.68;49.18
48517;BME280;34310;51.904;4.256;2023-06-14T13:00:48;101786.16;;;26.68;49.12
48517;BME280;34310;51.904;4.256;2023-06-14T13:03:15;101785.31;;;26.70;48.90
48517;BME280;34310;51.904;4.256;2023-06-14T13:05:43;101794.16;;;26.71;49.00
48517;BME280;34310;51.904;4.256;2023-06-14T13:08:11;101802.13;;;26.72;49.11
48517;BME280;34310;51.904;4.256;2023-06-14T13:10:38;101803.06;;;26.74;48.88
48517;BME280;34310;51.904;4.256;2023-06-14T13:13:06;101788.06;;;26.75;49.05
48517;BME280;34310;51.904;4.256;2023-06-14T13:15:34;101797.78;;;26.76;48.84